Overview Statistics Trail Chart Weather Telemetry Raw packets
 

This is the latest recevied weather packets stored in our database for station/object YO6LRV-3. If no packets are shown the sender has not sent any weather packets the latest 10 day(s).

<< 9 10 11 12 13 14 15 >>
Time Temp. Humidity Pressure Rain* Wind** Luminosity Snow
1788123437 23.89° C 56% 1017.8 hPa - - - -
1788122537 23.89° C 56% 1017.6 hPa - - - -
1788121637 23.89° C 57% 1017.6 hPa - - - -
1788120737 24.44° C 55% 1017.5 hPa - - - -
1788118936 24.44° C 54% 1017.4 hPa - - - -
1788118036 25° C 55% 1017.5 hPa - - - -
1788117138 25° C 52% 1017.5 hPa - - - -
1788116238 25.56° C 52% 1017.4 hPa - - - -
1788115338 25.56° C 51% 1017.4 hPa - - - -
1788114438 25.56° C 51% 1017.4 hPa - - - -
1788113538 26.11° C 50% 1017.2 hPa - - - -
1788112638 26.11° C 49% 1017.1 hPa - - - -
1788111737 26.11° C 49% 1016.9 hPa - - - -
1788110837 26.67° C 48% 1016.7 hPa - - - -
1788109937 26.67° C 49% 1016.5 hPa - - - -
1788109037 26.67° C 49% 1016.4 hPa - - - -
1788108137 27.22° C 50% 1016.3 hPa - - - -
1788107237 27.22° C 51% 1016.4 hPa - - - -
1788106337 27.22° C 49% 1016.4 hPa - - - -
1788105437 27.78° C 50% 1016.4 hPa - - - -
1788104536 27.78° C 50% 1016.4 hPa - - - -
1788082029 24.44° C 61% 1017.9 hPa - - - -
1788080228 23.89° C 63% 1017.9 hPa - - - -
1788074827 21.67° C 64% 1017.9 hPa - - - -
1788068529 20° C 64% 1017.6 hPa - - - -

* Rain since midnight (hover to see other rain measurements)
** Current wind speed in m/s (hover to see current wind gust speed)